createdAt,value
2023-12-27T00:03:58.563Z,94
2023-12-27T00:08:58.474Z,94
2023-12-27T00:13:57.955Z,95
2023-12-27T00:18:58.184Z,95
2023-12-27T00:23:58.006Z,94
2023-12-27T00:28:57.670Z,94
2023-12-27T00:33:58.037Z,93
2023-12-27T00:38:55.208Z,93
2023-12-27T00:43:54.715Z,93
2023-12-27T00:48:54.839Z,92
2023-12-27T00:53:55.229Z,92
2023-12-27T00:58:55.133Z,93
2023-12-27T01:00:57.628Z,92
2023-12-27T01:05:18.614Z,93
2023-12-27T01:10:18.483Z,93
2023-12-27T01:15:15.977Z,94
2023-12-27T01:20:15.257Z,94
2023-12-27T01:25:14.920Z,94
2023-12-27T01:30:15.302Z,94
2023-12-27T01:35:15.136Z,95
2023-12-27T01:40:14.964Z,95
2023-12-27T01:45:15.538Z,95
2023-12-27T01:50:15.495Z,95
2023-12-27T01:55:16.361Z,95
2023-12-27T01:59:47.563Z,95
2023-12-27T02:04:48.338Z,95
2023-12-27T02:09:48.354Z,95
2023-12-27T02:14:49.015Z,95
2023-12-27T02:19:49.657Z,95
2023-12-27T02:24:49.221Z,95
2023-12-27T02:29:46.688Z,94
2023-12-27T02:34:47.598Z,94
2023-12-27T02:39:47.357Z,94
2023-12-27T02:44:48.130Z,94
2023-12-27T02:49:48.762Z,94
2023-12-27T02:54:48.565Z,94
2023-12-27T02:59:22.300Z,94
2023-12-27T03:04:21.531Z,94
2023-12-27T03:09:21.443Z,94
2023-12-27T03:14:21.571Z,94
2023-12-27T03:19:21.327Z,94
2023-12-27T03:24:21.132Z,94
2023-12-27T03:29:21.349Z,94
2023-12-27T03:34:21.201Z,94
2023-12-27T03:39:20.946Z,94
2023-12-27T03:44:18.342Z,94
2023-12-27T03:49:17.968Z,94
2023-12-27T03:54:17.664Z,94
2023-12-27T03:59:00.964Z,94
2023-12-27T04:04:00.905Z,93
2023-12-27T04:09:01.248Z,93
2023-12-27T04:14:00.913Z,94
2023-12-27T04:19:01.258Z,94
2023-12-27T04:23:58.427Z,93
2023-12-27T04:28:57.830Z,93
2023-12-27T04:33:57.777Z,93
2023-12-27T04:38:57.949Z,93
2023-12-27T04:43:57.585Z,93
2023-12-27T04:48:57.911Z,93
2023-12-27T04:53:58.070Z,92
2023-12-27T04:58:57.918Z,92
2023-12-27T05:03:59.080Z,92
2023-12-27T05:08:55.128Z,92
2023-12-27T05:13:54.862Z,92
2023-12-27T05:18:54.937Z,92
2023-12-27T05:23:55.071Z,92
2023-12-27T05:28:54.812Z,92
2023-12-27T05:33:55.456Z,92
2023-12-27T05:38:54.727Z,93
2023-12-27T05:43:54.693Z,93
2023-12-27T05:48:52.524Z,94
2023-12-27T05:53:52.033Z,94
2023-12-27T05:58:51.903Z,94
2023-12-27T06:00:56.077Z,94
2023-12-27T06:05:14.356Z,94
2023-12-27T06:10:14.524Z,94
2023-12-27T06:15:14.013Z,94
2023-12-27T06:20:13.869Z,93
2023-12-27T06:25:12.492Z,93
2023-12-27T06:30:11.992Z,93
2023-12-27T06:35:11.704Z,92
2023-12-27T06:40:11.921Z,92
2023-12-27T06:45:11.231Z,92
2023-12-27T06:50:12.359Z,93
2023-12-27T06:55:11.902Z,93
2023-12-27T06:59:35.128Z,93
2023-12-27T07:04:33.737Z,94
2023-12-27T07:09:32.891Z,94
2023-12-27T07:14:32.689Z,95
2023-12-27T07:19:33.250Z,95
2023-12-27T07:24:32.770Z,96
2023-12-27T07:29:32.874Z,96
2023-12-27T07:34:32.721Z,97
2023-12-27T07:39:32.628Z,97
2023-12-27T07:44:31.123Z,97
2023-12-27T07:49:30.548Z,97
2023-12-27T07:54:30.075Z,97
2023-12-27T07:59:16.205Z,97
2023-12-27T08:04:15.954Z,97
2023-12-27T08:09:15.573Z,97
2023-12-27T08:14:15.968Z,97
2023-12-27T08:19:16.008Z,97
2023-12-27T08:24:15.932Z,97
2023-12-27T08:29:13.149Z,97
2023-12-27T08:34:12.690Z,97
2023-12-27T08:39:12.430Z,97
2023-12-27T08:44:12.711Z,97
2023-12-27T08:49:12.700Z,95
2023-12-27T08:54:12.593Z,95
2023-12-27T08:59:12.808Z,92
2023-12-27T09:04:13.163Z,90
2023-12-27T09:09:10.377Z,87
2023-12-27T09:14:10.111Z,87
2023-12-27T09:19:10.212Z,82
2023-12-27T09:24:10.373Z,80
2023-12-27T09:29:10.199Z,76
2023-12-27T09:34:10.744Z,72
2023-12-27T09:39:11.200Z,70
2023-12-27T09:44:11.196Z,70
2023-12-27T09:49:12.624Z,70
2023-12-27T09:54:08.800Z,71
2023-12-27T09:59:08.420Z,72
2023-12-27T10:04:08.518Z,74
2023-12-27T10:09:08.669Z,77
2023-12-27T10:14:08.339Z,76
2023-12-27T10:19:09.178Z,72
2023-12-27T10:24:08.329Z,73
2023-12-27T10:29:08.237Z,75
2023-12-27T10:34:06.876Z,77
2023-12-27T10:39:07.137Z,77
2023-12-27T10:44:06.955Z,78
2023-12-27T10:49:07.445Z,77
2023-12-27T10:54:07.151Z,72
2023-12-27T10:59:07.347Z,70
2023-12-27T11:04:07.309Z,64
2023-12-27T11:14:06.010Z,68
2023-12-27T11:19:05.453Z,71
2023-12-27T11:24:05.193Z,71
2023-12-27T11:29:05.348Z,70
2023-12-27T11:34:05.101Z,71
2023-12-27T11:44:05.019Z,73
2023-12-27T11:49:04.864Z,74
2023-12-27T11:59:02.063Z,72
2023-12-27T12:04:01.502Z,70
2023-12-27T12:14:01.536Z,72
2023-12-27T12:19:01.870Z,71
2023-12-27T12:29:01.723Z,69
2023-12-27T12:34:02.060Z,69
2023-12-27T12:43:58.539Z,68
2023-12-27T12:48:58.748Z,70
2023-12-27T12:58:58.673Z,72
2023-12-27T13:03:58.609Z,71
2023-12-27T13:13:58.504Z,71
2023-12-27T13:18:59.750Z,73
2023-12-27T13:23:55.615Z,74
2023-12-27T13:28:55.169Z,75
2023-12-27T13:33:55.387Z,75
2023-12-27T13:38:55.468Z,75
2023-12-27T13:43:55.165Z,76
2023-12-27T13:48:55.802Z,76
2023-12-27T13:53:54.840Z,77
2023-12-27T13:58:56.417Z,77
2023-12-27T14:01:02.207Z,77
2023-12-27T14:05:17.726Z,77
2023-12-27T14:10:17.672Z,77
2023-12-27T14:15:18.381Z,78
2023-12-27T14:20:17.986Z,78
2023-12-27T14:25:18.118Z,79
2023-12-27T14:30:17.533Z,78
2023-12-27T14:35:17.458Z,79
2023-12-27T14:40:17.394Z,79
2023-12-27T14:45:16.525Z,79
2023-12-27T14:50:16.141Z,80
2023-12-27T14:55:16.178Z,81
2023-12-27T14:59:48.594Z,81
2023-12-27T15:04:49.169Z,81
2023-12-27T15:09:49.193Z,82
2023-12-27T15:14:49.995Z,82
2023-12-27T15:19:35.790Z,82
2023-12-27T15:24:34.954Z,83
2023-12-27T15:29:34.763Z,83
2023-12-27T15:34:34.712Z,84
2023-12-27T15:39:34.615Z,85
2023-12-27T15:44:34.756Z,85
2023-12-27T15:49:34.723Z,85
2023-12-27T15:54:35.441Z,86
2023-12-27T15:59:20.684Z,87
2023-12-27T16:04:23.805Z,88
2023-12-27T16:09:20.054Z,89
2023-12-27T16:14:20.329Z,89
2023-12-27T16:19:20.433Z,89
2023-12-27T16:24:20.295Z,89
2023-12-27T16:29:19.707Z,89
2023-12-27T16:34:19.794Z,89
2023-12-27T16:39:18.078Z,89
2023-12-27T16:44:17.275Z,89
2023-12-27T16:49:16.948Z,89
2023-12-27T16:54:16.964Z,89
2023-12-27T16:59:00.556Z,90
2023-12-27T17:04:00.776Z,90
2023-12-27T17:09:00.724Z,91
2023-12-27T17:14:01.169Z,91
2023-12-27T17:18:59.701Z,91
2023-12-27T17:23:59.883Z,91
2023-12-27T17:28:59.613Z,92
2023-12-27T17:34:00.153Z,92
2023-12-27T17:38:59.178Z,93
2023-12-27T17:43:59.080Z,93
2023-12-27T17:48:59.599Z,94
2023-12-27T17:53:59.321Z,94
2023-12-27T17:58:59.291Z,94
2023-12-27T18:03:57.009Z,95
2023-12-27T18:08:56.267Z,95
2023-12-27T18:13:56.075Z,96
2023-12-27T18:18:56.554Z,96
2023-12-27T18:23:56.149Z,96
2023-12-27T18:28:56.213Z,96
2023-12-27T18:33:56.802Z,96
2023-12-27T18:38:56.444Z,96
2023-12-27T18:43:57.482Z,96
2023-12-27T18:48:53.932Z,96
2023-12-27T18:53:53.490Z,96
2023-12-27T18:58:53.668Z,97
2023-12-27T19:00:56.048Z,97
2023-12-27T19:05:16.759Z,96
2023-12-27T19:10:17.027Z,96
2023-12-27T19:15:18.715Z,96
2023-12-27T19:20:18.013Z,96
2023-12-27T19:25:13.876Z,96
2023-12-27T19:30:13.670Z,96
2023-12-27T19:35:13.660Z,96
2023-12-27T19:40:13.903Z,96
2023-12-27T19:45:13.726Z,95
2023-12-27T19:50:13.923Z,93
2023-12-27T19:55:13.672Z,92
2023-12-27T19:59:47.735Z,89
2023-12-27T20:04:34.593Z,88
2023-12-27T20:09:34.044Z,87
2023-12-27T20:14:33.974Z,86
2023-12-27T20:19:34.595Z,86
2023-12-27T20:24:34.168Z,86
2023-12-27T20:29:34.662Z,86
2023-12-27T20:34:34.716Z,87
2023-12-27T20:39:34.588Z,87
2023-12-27T20:44:32.096Z,88
2023-12-27T20:49:31.839Z,88
2023-12-27T20:54:31.443Z,87
2023-12-27T20:59:20.749Z,84
2023-12-27T21:04:20.626Z,83
2023-12-27T21:09:20.567Z,82
2023-12-27T21:14:21.004Z,83
2023-12-27T21:19:21.292Z,84
2023-12-27T21:24:21.956Z,85
2023-12-27T21:29:20.714Z,87
2023-12-27T21:34:18.180Z,88
2023-12-27T21:39:17.898Z,89
2023-12-27T21:44:18.193Z,89
2023-12-27T21:49:18.259Z,90
2023-12-27T21:54:18.380Z,90
2023-12-27T21:59:02.061Z,90
2023-12-27T22:04:02.004Z,89
2023-12-27T22:08:59.671Z,88
2023-12-27T22:13:59.391Z,86
2023-12-27T22:18:59.343Z,85
2023-12-27T22:23:59.458Z,84
2023-12-27T22:28:59.421Z,84
2023-12-27T22:33:59.473Z,83
2023-12-27T22:38:58.860Z,83
2023-12-27T22:43:58.727Z,83
2023-12-27T22:48:57.337Z,82
2023-12-27T22:53:57.553Z,82
2023-12-27T22:58:57.134Z,82
2023-12-27T23:03:57.523Z,82
2023-12-27T23:08:56.826Z,81
2023-12-27T23:13:56.674Z,81
2023-12-27T23:18:57.491Z,81
2023-12-27T23:23:57.108Z,82
2023-12-27T23:28:55.709Z,81
2023-12-27T23:33:55.454Z,80
2023-12-27T23:38:54.778Z,80
2023-12-27T23:43:55.219Z,80
2023-12-27T23:48:55.340Z,80
2023-12-27T23:53:55.315Z,79
2023-12-27T23:58:54.763Z,78
